createdAt,value
2018-08-20T00:01:48.555Z,4.47
2018-08-20T00:04:16.400Z,5.43
2018-08-20T00:06:54.629Z,3.50
2018-08-20T00:09:32.069Z,2.33
2018-08-20T00:11:59.834Z,1.70
2018-08-20T00:14:27.561Z,2.17
2018-08-20T00:16:55.335Z,2.03
2018-08-20T00:19:23.238Z,3.23
2018-08-20T00:21:50.997Z,2.80
2018-08-20T00:24:18.732Z,2.33
2018-08-20T00:26:46.492Z,2.03
2018-08-20T00:29:14.276Z,5.20
2018-08-20T00:31:42.035Z,4.10
2018-08-20T00:34:09.804Z,2.93
2018-08-20T00:36:37.604Z,5.33
2018-08-20T00:39:07.257Z,5.57
2018-08-20T00:41:35.032Z,4.80
2018-08-20T00:44:06.517Z,3.53
2018-08-20T00:46:34.272Z,4.50
2018-08-20T00:49:02.041Z,3.50
2018-08-20T00:51:29.865Z,4.70
2018-08-20T00:53:57.632Z,6.67
2018-08-20T00:56:25.356Z,5.20
2018-08-20T00:58:53.181Z,3.30
2018-08-20T01:01:20.946Z,2.93
2018-08-20T01:03:49.004Z,3.70
2018-08-20T01:06:16.794Z,4.73
2018-08-20T01:08:44.540Z,3.87
2018-08-20T01:11:12.434Z,5.13
2018-08-20T01:13:40.185Z,5.27
2018-08-20T01:16:07.959Z,9.43
2018-08-20T01:18:35.742Z,7.87
2018-08-20T01:21:03.474Z,4.97
2018-08-20T01:23:31.331Z,5.97
2018-08-20T01:25:59.372Z,6.50
2018-08-20T01:28:27.167Z,6.80
2018-08-20T01:30:54.934Z,5.57
2018-08-20T01:33:23.543Z,4.83
2018-08-20T01:35:51.291Z,4.80
2018-08-20T01:38:19.068Z,4.27
2018-08-20T01:40:46.803Z,6.03
2018-08-20T01:43:14.580Z,4.23
2018-08-20T01:45:42.384Z,7.17
2018-08-20T01:48:10.195Z,4.30
2018-08-20T01:50:37.957Z,4.40
2018-08-20T01:53:05.716Z,10.03
2018-08-20T01:55:33.467Z,6.23
2018-08-20T01:58:01.174Z,5.83
2018-08-20T02:00:28.978Z,6.67
2018-08-20T02:03:01.196Z,4.80
2018-08-20T02:05:29.010Z,6.33
2018-08-20T02:07:56.889Z,6.63
2018-08-20T02:10:24.918Z,5.67
2018-08-20T02:12:52.750Z,4.50
2018-08-20T02:15:20.589Z,8.83
2018-08-20T02:17:48.428Z,7.30
2018-08-20T02:20:16.198Z,5.07
2018-08-20T02:22:43.924Z,5.87
2018-08-20T02:25:11.723Z,7.23
2018-08-20T02:27:39.822Z,6.20
2018-08-20T02:30:07.880Z,4.73
2018-08-20T02:32:35.899Z,5.60
2018-08-20T02:35:04.283Z,5.80
2018-08-20T02:37:36.540Z,4.80
2018-08-20T02:40:06.341Z,6.70
2018-08-20T02:42:34.256Z,5.73
2018-08-20T02:45:02.713Z,6.30
2018-08-20T02:47:30.519Z,5.07
2018-08-20T02:49:58.312Z,5.33
2018-08-20T02:52:26.126Z,4.67
2018-08-20T02:54:54.062Z,5.77
2018-08-20T02:57:21.821Z,4.47
2018-08-20T02:59:49.621Z,7.10
2018-08-20T03:02:17.485Z,5.03
2018-08-20T03:04:45.216Z,3.90
2018-08-20T03:07:13.263Z,7.17
2018-08-20T03:09:41.048Z,7.23
2018-08-20T03:12:08.834Z,7.40
2018-08-20T03:14:36.573Z,4.20
2018-08-20T03:17:04.918Z,5.90
2018-08-20T03:19:32.823Z,7.03
2018-08-20T03:22:00.616Z,8.03
2018-08-20T03:24:28.451Z,6.67
2018-08-20T03:26:56.316Z,5.47
2018-08-20T03:29:24.097Z,8.93
2018-08-20T03:31:51.865Z,6.90
2018-08-20T03:34:19.721Z,5.37
2018-08-20T03:36:47.477Z,5.93
2018-08-20T03:39:15.434Z,4.80
2018-08-20T03:41:43.279Z,6.13
2018-08-20T03:44:11.039Z,5.97
2018-08-20T03:46:38.834Z,7.77
2018-08-20T03:49:06.675Z,5.17
2018-08-20T03:51:34.508Z,10.20
2018-08-20T03:54:02.268Z,4.57
2018-08-20T03:56:31.848Z,11.50
2018-08-20T03:58:59.616Z,10.50
2018-08-20T04:01:27.467Z,6.90
2018-08-20T04:03:55.492Z,8.20
2018-08-20T04:06:23.304Z,6.10
2018-08-20T04:08:51.012Z,5.07
2018-08-20T04:11:18.789Z,7.77
2018-08-20T04:13:46.554Z,7.90
2018-08-20T04:16:14.326Z,8.20
2018-08-20T04:18:42.248Z,12.77
2018-08-20T04:21:10.011Z,6.83
2018-08-20T04:23:37.757Z,7.70
2018-08-20T04:26:05.556Z,7.20
2018-08-20T04:28:33.320Z,9.23
2018-08-20T04:31:01.428Z,8.07
2018-08-20T04:33:29.397Z,8.23
2018-08-20T04:35:57.221Z,7.57
2018-08-20T04:38:25.007Z,6.83
2018-08-20T04:40:52.758Z,8.70
2018-08-20T04:43:20.493Z,6.23
2018-08-20T04:45:48.653Z,8.47
2018-08-20T04:48:16.435Z,5.60
2018-08-20T04:50:44.214Z,6.83
2018-08-20T04:53:11.976Z,8.60
2018-08-20T04:55:39.723Z,4.90
2018-08-20T04:58:07.505Z,6.63
2018-08-20T05:00:35.700Z,8.37
2018-08-20T05:03:03.477Z,4.20
2018-08-20T05:05:31.276Z,7.53
2018-08-20T05:07:59.049Z,7.30
2018-08-20T05:10:26.785Z,4.80
2018-08-20T05:12:54.549Z,5.53
2018-08-20T05:15:22.369Z,10.27
2018-08-20T05:17:50.296Z,7.13
2018-08-20T05:20:18.021Z,8.73
2018-08-20T05:22:45.757Z,5.33
2018-08-20T05:25:13.578Z,5.80
2018-08-20T05:27:41.341Z,7.00
2018-08-20T05:30:09.446Z,4.93
2018-08-20T05:32:37.416Z,5.50
2018-08-20T05:35:06.026Z,6.00
2018-08-20T05:37:33.744Z,4.07
2018-08-20T05:40:01.521Z,4.30
2018-08-20T05:42:29.246Z,6.17
2018-08-20T05:44:57.137Z,5.63
2018-08-20T05:47:24.975Z,5.77
2018-08-20T05:49:52.772Z,5.00
2018-08-20T05:52:20.603Z,4.50
2018-08-20T05:54:48.367Z,4.37
2018-08-20T05:57:16.228Z,5.67
2018-08-20T05:59:44.027Z,6.13
2018-08-20T06:02:11.791Z,3.97
2018-08-20T06:04:39.504Z,5.43
2018-08-20T06:07:07.385Z,3.67
2018-08-20T06:09:35.298Z,4.20
2018-08-20T06:12:03.103Z,3.20
2018-08-20T06:14:30.878Z,4.90
2018-08-20T06:16:58.715Z,3.23
2018-08-20T06:19:26.511Z,4.83
2018-08-20T06:21:54.293Z,3.87
2018-08-20T06:24:22.107Z,4.00
2018-08-20T06:26:49.851Z,4.10
2018-08-20T06:29:17.654Z,3.83
2018-08-20T06:31:45.505Z,3.30
2018-08-20T06:34:13.517Z,2.30
2018-08-20T06:36:41.304Z,3.67
2018-08-20T06:39:09.515Z,2.70
2018-08-20T06:41:37.394Z,3.60
2018-08-20T06:44:05.561Z,5.05
2018-08-20T06:46:33.484Z,2.57
2018-08-20T06:49:01.362Z,3.43
2018-08-20T06:51:29.176Z,4.27
2018-08-20T06:53:56.986Z,2.73
2018-08-20T06:56:24.741Z,4.73
2018-08-20T06:58:52.494Z,2.67
2018-08-20T07:01:20.301Z,2.85
2018-08-20T07:03:48.107Z,2.20
2018-08-20T07:06:15.908Z,4.60
2018-08-20T07:08:43.786Z,3.85
2018-08-20T07:11:11.552Z,2.42
2018-08-20T07:13:39.316Z,3.33
2018-08-20T07:16:08.162Z,3.27
2018-08-20T07:18:36.036Z,2.65
2018-08-20T07:21:03.889Z,1.92
2018-08-20T07:23:31.758Z,3.25
2018-08-20T07:25:59.570Z,3.30
2018-08-20T07:28:27.355Z,2.10
2018-08-20T07:30:55.114Z,3.22
2018-08-20T07:33:22.896Z,1.62
2018-08-20T07:35:50.733Z,3.42
2018-08-20T07:38:18.536Z,4.17
2018-08-20T07:40:46.343Z,3.40
2018-08-20T07:43:14.150Z,1.85
2018-08-20T07:45:41.956Z,1.65
2018-08-20T07:48:09.820Z,3.45
2018-08-20T07:50:37.690Z,2.42
2018-08-20T07:53:05.847Z,1.70
2018-08-20T07:55:33.712Z,3.58
2018-08-20T07:58:01.538Z,2.62
2018-08-20T08:00:29.296Z,1.57
2018-08-20T08:02:57.072Z,2.20
2018-08-20T08:05:24.912Z,1.57
2018-08-20T08:07:52.760Z,2.22
2018-08-20T08:10:20.600Z,1.85
2018-08-20T08:12:47.783Z,1.37
2018-08-20T08:15:16.102Z,1.47
2018-08-20T08:17:44.994Z,1.52
2018-08-20T08:20:14.020Z,1.42
2018-08-20T08:22:42.195Z,1.95
2018-08-20T08:25:10.361Z,2.40
2018-08-20T08:27:38.398Z,2.15
2018-08-20T08:30:12.888Z,1.32
2018-08-20T08:32:40.714Z,2.70
2018-08-20T08:35:09.107Z,1.95
2018-08-20T08:37:37.401Z,1.20
2018-08-20T08:40:05.243Z,1.52
2018-08-20T08:42:33.064Z,1.22
2018-08-20T08:45:00.962Z,2.02
2018-08-20T08:47:28.784Z,2.17
2018-08-20T08:49:56.692Z,2.58
2018-08-20T08:52:24.505Z,2.77
2018-08-20T08:54:52.387Z,2.55
2018-08-20T08:57:20.218Z,1.75
2018-08-20T08:59:48.052Z,1.47
2018-08-20T09:02:15.828Z,1.50
2018-08-20T09:04:43.774Z,0.95
2018-08-20T09:07:11.649Z,2.12
2018-08-20T09:09:39.428Z,1.67
2018-08-20T09:12:07.300Z,2.25
2018-08-20T09:14:35.065Z,2.00
2018-08-20T09:17:02.935Z,2.58
2018-08-20T09:19:30.826Z,1.92
2018-08-20T09:21:58.683Z,1.17
2018-08-20T09:24:26.471Z,1.67
2018-08-20T09:26:54.374Z,2.65
2018-08-20T09:29:22.473Z,1.85
2018-08-20T09:31:50.280Z,1.07
2018-08-20T09:34:18.089Z,1.37
2018-08-20T09:36:45.905Z,0.70
2018-08-20T09:39:13.705Z,1.65
2018-08-20T09:41:41.541Z,2.37
2018-08-20T09:44:09.322Z,2.42
2018-08-20T09:46:37.124Z,1.72
2018-08-20T09:49:04.945Z,0.93
2018-08-20T09:51:32.797Z,1.87
2018-08-20T09:54:00.652Z,0.65
2018-08-20T09:56:28.575Z,1.35
2018-08-20T09:58:56.506Z,1.95
2018-08-20T10:01:24.344Z,1.37
2018-08-20T10:03:52.148Z,1.25
2018-08-20T10:06:20.008Z,3.70
2018-08-20T10:08:47.784Z,2.35
2018-08-20T10:11:15.629Z,1.42
2018-08-20T10:13:43.477Z,1.47
2018-08-20T10:16:11.310Z,1.65
2018-08-20T10:18:39.500Z,2.58
2018-08-20T10:21:08.252Z,1.37
2018-08-20T10:23:36.076Z,2.80
2018-08-20T10:26:04.001Z,2.58
2018-08-20T10:28:31.775Z,3.22
2018-08-20T10:30:59.557Z,3.00
2018-08-20T10:33:27.316Z,3.37
2018-08-20T10:35:55.150Z,2.15
2018-08-20T10:38:22.909Z,1.30
2018-08-20T10:40:50.768Z,1.12
2018-08-20T10:43:18.548Z,1.85
2018-08-20T10:45:51.793Z,1.62
2018-08-20T10:48:21.776Z,2.40
2018-08-20T10:50:49.532Z,1.22
2018-08-20T10:53:17.327Z,2.35
2018-08-20T10:55:45.165Z,1.10
2018-08-20T10:58:13.023Z,1.67
2018-08-20T11:00:40.861Z,1.70
2018-08-20T11:03:08.725Z,1.67
2018-08-20T11:05:36.568Z,0.70
2018-08-20T11:08:04.404Z,1.67
2018-08-20T11:10:32.191Z,1.57
2018-08-20T11:13:00.047Z,1.35
2018-08-20T11:15:27.887Z,2.15
2018-08-20T11:17:55.784Z,2.90
2018-08-20T11:20:23.580Z,1.45
2018-08-20T11:22:51.590Z,0.80
2018-08-20T11:25:19.361Z,0.82
2018-08-20T11:27:47.200Z,0.65
2018-08-20T11:30:15.365Z,1.55
2018-08-20T11:32:43.339Z,1.40
2018-08-20T11:35:11.768Z,1.52
2018-08-20T11:37:39.672Z,0.98
2018-08-20T11:40:08.190Z,3.22
2018-08-20T11:42:36.024Z,2.83
2018-08-20T11:45:04.059Z,1.65
2018-08-20T11:47:31.868Z,1.02
2018-08-20T11:49:59.696Z,1.62
2018-08-20T11:52:27.591Z,1.35
2018-08-20T11:54:55.366Z,1.40
2018-08-20T11:57:23.130Z,0.95
2018-08-20T11:59:50.916Z,0.82
2018-08-20T12:02:18.765Z,2.15
2018-08-20T12:04:46.530Z,1.27
2018-08-20T12:07:14.389Z,3.77
2018-08-20T12:09:42.260Z,0.75
2018-08-20T12:12:10.108Z,2.08
2018-08-20T12:14:38.257Z,1.15
2018-08-20T12:17:06.170Z,0.85
2018-08-20T12:19:34.032Z,0.40
2018-08-20T12:22:01.838Z,0.98
2018-08-20T12:24:30.304Z,0.95
2018-08-20T12:26:58.128Z,1.22
2018-08-20T12:29:25.907Z,0.68
2018-08-20T12:31:53.692Z,1.60
2018-08-20T12:34:21.504Z,2.62
2018-08-20T12:36:49.340Z,1.70
2018-08-20T12:39:17.888Z,0.60
2018-08-20T12:41:45.669Z,0.68
2018-08-20T12:44:13.470Z,1.12
2018-08-20T12:46:41.408Z,1.87
2018-08-20T12:49:09.262Z,3.50
2018-08-20T12:51:37.076Z,1.32
2018-08-20T12:54:04.921Z,1.47
2018-08-20T12:56:32.708Z,0.50
2018-08-20T12:59:00.494Z,2.37
2018-08-20T13:01:28.372Z,1.70
2018-08-20T13:03:56.212Z,1.77
2018-08-20T13:06:23.965Z,0.60
2018-08-20T13:08:51.855Z,0.93
2018-08-20T13:11:19.663Z,0.95
2018-08-20T13:13:47.496Z,1.45
2018-08-20T13:16:15.307Z,0.57
2018-08-20T13:18:43.185Z,1.35
2018-08-20T13:21:11.052Z,1.00
2018-08-20T13:23:38.926Z,0.50
2018-08-20T13:26:06.827Z,0.30
2018-08-20T13:28:34.723Z,1.95
2018-08-20T13:31:02.938Z,0.78
2018-08-20T13:33:30.833Z,0.85
2018-08-20T13:35:58.628Z,1.62
2018-08-20T13:38:26.468Z,0.88
2018-08-20T13:40:54.400Z,1.15
2018-08-20T13:43:22.269Z,1.37
2018-08-20T13:45:50.119Z,1.22
2018-08-20T13:48:18.005Z,1.55
2018-08-20T13:50:45.828Z,1.05
2018-08-20T13:53:13.636Z,0.53
2018-08-20T13:55:41.605Z,1.82
2018-08-20T13:58:09.413Z,1.22
2018-08-20T14:00:37.181Z,0.55
2018-08-20T14:03:04.957Z,0.78
2018-08-20T14:05:32.786Z,0.72
2018-08-20T14:08:00.711Z,1.15
2018-08-20T14:10:28.573Z,0.93
2018-08-20T14:12:56.544Z,0.70
2018-08-20T14:15:24.394Z,1.45
2018-08-20T14:17:52.216Z,1.15
2018-08-20T14:20:20.061Z,0.47
2018-08-20T14:22:47.970Z,3.22
2018-08-20T14:25:16.404Z,0.90
2018-08-20T14:27:44.233Z,0.80
2018-08-20T14:30:13.833Z,0.68
2018-08-20T14:32:42.173Z,0.98
2018-08-20T14:35:10.870Z,2.17
2018-08-20T14:37:39.147Z,1.87
2018-08-20T14:40:10.436Z,1.60
2018-08-20T14:42:38.248Z,0.95
2018-08-20T14:45:08.603Z,1.15
2018-08-20T14:47:36.498Z,0.43
2018-08-20T14:50:05.829Z,2.37
2018-08-20T14:52:34.136Z,0.60
2018-08-20T14:55:01.918Z,2.22
2018-08-20T14:57:29.675Z,1.50
2018-08-20T14:59:57.592Z,1.10
2018-08-20T15:02:25.455Z,3.10
2018-08-20T15:04:53.262Z,1.83
2018-08-20T15:07:21.073Z,1.20
2018-08-20T15:09:48.846Z,0.30
2018-08-20T15:12:16.685Z,0.87
2018-08-20T15:14:44.497Z,0.47
2018-08-20T15:17:12.389Z,1.00
2018-08-20T15:19:41.185Z,0.97
2018-08-20T15:22:09.004Z,2.43
2018-08-20T15:24:36.781Z,1.80
2018-08-20T15:27:04.615Z,1.87
2018-08-20T15:29:32.412Z,3.67
2018-08-20T15:32:00.276Z,2.00
2018-08-20T15:34:28.073Z,1.53
2018-08-20T15:36:55.923Z,0.60
2018-08-20T15:39:23.783Z,0.67
2018-08-20T15:41:51.595Z,1.07
2018-08-20T15:44:19.397Z,0.83
2018-08-20T15:46:47.216Z,1.57
2018-08-20T15:49:15.019Z,0.80
2018-08-20T15:51:42.787Z,0.50
2018-08-20T15:54:10.581Z,0.87
2018-08-20T15:56:38.353Z,0.77
2018-08-20T15:59:06.217Z,1.10
2018-08-20T16:01:34.060Z,2.30
2018-08-20T16:04:01.796Z,1.10
2018-08-20T16:06:29.624Z,1.20
2018-08-20T16:08:57.448Z,0.30
2018-08-20T16:11:25.228Z,1.00
2018-08-20T16:13:53.071Z,1.73
2018-08-20T16:16:20.886Z,1.53
2018-08-20T16:18:48.716Z,0.93
2018-08-20T16:21:16.569Z,0.80
2018-08-20T16:23:44.403Z,1.03
2018-08-20T16:26:12.166Z,0.60
2018-08-20T16:28:40.807Z,0.50
2018-08-20T16:31:08.621Z,1.17
2018-08-20T16:33:36.390Z,1.13
2018-08-20T16:36:04.325Z,3.33
2018-08-20T16:38:32.159Z,1.33
2018-08-20T16:41:00.022Z,0.53
2018-08-20T16:43:27.837Z,1.93
2018-08-20T16:45:55.606Z,0.30
2018-08-20T16:48:23.486Z,1.13
2018-08-20T16:50:52.295Z,3.10
2018-08-20T16:53:20.169Z,1.53
2018-08-20T16:55:47.943Z,0.80
2018-08-20T16:58:15.804Z,1.20
2018-08-20T17:00:43.620Z,2.30
2018-08-20T17:03:12.421Z,1.30
2018-08-20T17:05:47.513Z,0.87
2018-08-20T17:08:21.016Z,0.40
2018-08-20T17:10:49.162Z,0.50
2018-08-20T17:13:16.974Z,0.40
2018-08-20T17:15:44.877Z,1.47
2018-08-20T17:18:12.774Z,1.47
2018-08-20T17:20:40.560Z,2.60
2018-08-20T17:23:18.848Z,1.93
2018-08-20T17:25:46.867Z,1.27
2018-08-20T17:28:18.423Z,1.00
2018-08-20T17:30:46.252Z,0.60
2018-08-20T17:33:14.079Z,3.53
2018-08-20T17:35:43.371Z,0.53
2018-08-20T17:38:11.191Z,0.90
2018-08-20T17:40:39.779Z,1.20
2018-08-20T17:43:08.290Z,2.87
2018-08-20T17:45:36.055Z,1.20
2018-08-20T17:48:04.012Z,1.30
2018-08-20T17:50:42.172Z,1.70
2018-08-20T17:53:09.989Z,1.60
2018-08-20T17:55:37.837Z,1.90
2018-08-20T17:58:05.753Z,2.30
2018-08-20T18:00:41.702Z,2.33
2018-08-20T18:03:18.821Z,1.73
2018-08-20T18:05:53.083Z,1.00
2018-08-20T18:08:21.717Z,1.47
2018-08-20T18:10:49.675Z,2.60
2018-08-20T18:13:34.160Z,0.40
2018-08-20T18:16:04.435Z,3.23
2018-08-20T18:18:33.232Z,0.70
2018-08-20T18:21:01.069Z,1.17
2018-08-20T18:23:30.306Z,0.87
2018-08-20T18:25:58.109Z,0.90
2018-08-20T18:28:25.956Z,0.30
2018-08-20T18:30:59.527Z,0.90
2018-08-20T18:33:28.850Z,1.57
2018-08-20T18:36:01.323Z,0.97
2018-08-20T18:38:32.149Z,1.60
2018-08-20T18:41:00.053Z,0.30
2018-08-20T18:43:27.943Z,1.53
2018-08-20T18:45:55.782Z,1.17
2018-08-20T18:48:28.070Z,0.30
2018-08-20T18:50:56.009Z,0.73
2018-08-20T18:53:28.356Z,1.07
2018-08-20T18:56:04.213Z,1.10
2018-08-20T18:58:33.015Z,3.20
2018-08-20T19:01:00.886Z,1.80
2018-08-20T19:03:33.203Z,0.93
2018-08-20T19:06:03.587Z,1.67
2018-08-20T19:08:31.798Z,0.73
2018-08-20T19:10:59.762Z,0.40
2018-08-20T19:13:27.933Z,0.80
2018-08-20T19:15:55.860Z,1.17
2018-08-20T19:18:29.717Z,2.13
2018-08-20T19:20:57.516Z,1.70
2018-08-20T19:23:25.444Z,0.43
2018-08-20T19:25:53.428Z,0.50
2018-08-20T19:28:22.269Z,2.00
2018-08-20T19:30:51.045Z,2.90
2018-08-20T19:33:23.612Z,0.77
2018-08-20T19:35:52.225Z,1.70
2018-08-20T19:38:20.559Z,1.23
2018-08-20T19:40:58.901Z,2.30
2018-08-20T19:43:31.384Z,1.07
2018-08-20T19:45:59.228Z,0.83
2018-08-20T19:48:27.051Z,1.47
2018-08-20T19:50:54.844Z,2.07
2018-08-20T19:53:23.965Z,2.23
2018-08-20T19:55:52.319Z,0.80
2018-08-20T19:58:25.271Z,1.57
2018-08-20T20:01:04.332Z,0.97
2018-08-20T20:03:33.068Z,1.63
2018-08-20T20:06:01.425Z,6.27
2018-08-20T20:08:29.742Z,2.00
2018-08-20T20:10:57.743Z,1.80
2018-08-20T20:13:25.828Z,0.87
2018-08-20T20:15:53.590Z,1.10
2018-08-20T20:18:21.488Z,0.70
2018-08-20T20:20:49.303Z,1.37
2018-08-20T20:23:17.412Z,1.67
2018-08-20T20:25:45.964Z,1.43
2018-08-20T20:28:13.824Z,1.23
2018-08-20T20:30:41.609Z,0.57
2018-08-20T20:33:09.783Z,3.90
2018-08-20T20:35:37.629Z,1.67
2018-08-20T20:38:06.030Z,2.17
2018-08-20T20:40:33.816Z,1.63
2018-08-20T20:43:01.640Z,3.03
2018-08-20T20:45:30.467Z,1.33
2018-08-20T20:47:58.226Z,0.73
2018-08-20T20:50:26.040Z,2.10
2018-08-20T20:52:53.950Z,1.83
2018-08-20T20:55:21.794Z,0.93
2018-08-20T20:57:49.561Z,0.57
2018-08-20T21:00:17.455Z,2.33
2018-08-20T21:02:45.206Z,1.70
2018-08-20T21:05:13.090Z,1.53
2018-08-20T21:07:40.876Z,1.17
2018-08-20T21:10:08.773Z,0.33
2018-08-20T21:12:36.584Z,2.00
2018-08-20T21:15:05.589Z,0.80
2018-08-20T21:17:34.838Z,1.60
2018-08-20T21:20:02.678Z,5.13
2018-08-20T21:22:30.637Z,0.80
2018-08-20T21:24:58.498Z,1.40
2018-08-20T21:27:26.769Z,2.03
2018-08-20T21:30:01.001Z,0.90
2018-08-20T21:32:29.078Z,2.10
2018-08-20T21:34:56.886Z,1.30
2018-08-20T21:37:24.730Z,2.40
2018-08-20T21:39:52.466Z,0.40
2018-08-20T21:42:28.445Z,1.17
2018-08-20T21:44:57.358Z,0.97
2018-08-20T21:47:26.742Z,0.77
2018-08-20T21:49:54.539Z,1.47
2018-08-20T21:52:22.315Z,0.80
2018-08-20T21:54:50.150Z,1.60
2018-08-20T21:57:17.953Z,0.90
2018-08-20T21:59:57.288Z,3.50
2018-08-20T22:02:30.226Z,0.60
2018-08-20T22:04:58.140Z,0.47
2018-08-20T22:07:25.937Z,2.40
2018-08-20T22:09:54.143Z,1.77
2018-08-20T22:12:21.915Z,1.17
2018-08-20T22:14:49.804Z,0.43
2018-08-20T22:17:23.045Z,2.97
2018-08-20T22:19:50.941Z,0.87
2018-08-20T22:22:22.964Z,2.87
2018-08-20T22:25:00.635Z,1.77
2018-08-20T22:27:29.507Z,2.00
2018-08-20T22:30:02.572Z,2.43
2018-08-20T22:32:31.133Z,0.50
2018-08-20T22:34:59.173Z,1.07
2018-08-20T22:37:26.945Z,1.17
2018-08-20T22:40:00.329Z,1.07
2018-08-20T22:42:41.728Z,0.90
2018-08-20T22:45:10.524Z,1.70
2018-08-20T22:47:38.640Z,1.43
2018-08-20T22:50:06.396Z,0.40
2018-08-20T22:52:34.130Z,0.43
2018-08-20T22:55:01.959Z,0.93
2018-08-20T22:57:29.760Z,1.03
2018-08-20T22:59:57.513Z,1.63
2018-08-20T23:02:25.282Z,6.67
2018-08-20T23:04:58.712Z,0.67
2018-08-20T23:07:26.483Z,2.80
2018-08-20T23:09:54.560Z,2.77
2018-08-20T23:12:26.812Z,1.60
2018-08-20T23:14:54.707Z,0.60
2018-08-20T23:17:22.567Z,1.67
2018-08-20T23:19:50.362Z,0.67
2018-08-20T23:22:18.152Z,1.03
2018-08-20T23:24:50.368Z,0.50
2018-08-20T23:27:19.687Z,0.40
2018-08-20T23:29:47.463Z,1.07
2018-08-20T23:32:15.313Z,1.20
2018-08-20T23:34:43.039Z,0.77
2018-08-20T23:37:10.837Z,0.37
2018-08-20T23:39:38.622Z,1.27
2018-08-20T23:42:06.552Z,1.10
2018-08-20T23:44:34.265Z,0.50
2018-08-20T23:47:02.051Z,1.63
2018-08-20T23:49:29.788Z,0.60
2018-08-20T23:51:57.585Z,0.90
2018-08-20T23:54:25.414Z,0.57
2018-08-20T23:56:53.211Z,1.47
2018-08-20T23:59:20.947Z,2.73
